ADDS METAR Data INFO
IDs: Format: Raw Decoded Include TAF

Data at: 2041 UTC 16 Dec 2017

KSME 162015Z AUTO 26010KT 10SM CLR 09/M02 A3017 RMK AO2
KSME 161955Z AUTO 25009G15KT 180V270 10SM CLR 09/M02 A3017 RMK AO2
KSME 161935Z AUTO 24012G15KT 180V270 10SM CLR 09/M02 A3018 RMK AO2
KSME 161915Z AUTO 27012G17KT 10SM CLR 08/M01 A3018 RMK AO2
KSME 161855Z AUTO 26011G16KT 180V270 10SM CLR 08/M02 A3018 RMK AO2
KSME 161835Z AUTO 27014G17KT 200V270 10SM CLR 08/M01 A3020 RMK AO2
KSME 161815Z AUTO 24011G18KT 180V270 10SM CLR 07/M02 A3020 RMK AO2
KSME 161755Z AUTO 24012G19KT 200V270 10SM CLR 07/M02 A3021 RMK AO2
KSME 161735Z AUTO 25013G20KT 180V270 10SM CLR 07/M02 A3022 RMK AO2
KSME 161715Z AUTO 22013G17KT 180V270 10SM CLR 07/M02 A3022 RMK AO2
KSME 161655Z AUTO 25010G15KT 180V270 10SM CLR 07/M02 A3023 RMK AO2
KSME 161635Z AUTO 20006KT 10SM CLR 06/M02 A3023 RMK AO2
KSME 161615Z AUTO 19007KT 180V240 10SM CLR 05/M03 A3024 RMK AO2
KSME 161555Z AUTO 22008KT 180V270 10SM CLR 04/M03 A3024 RMK AO2
KSME 161535Z AUTO 19006KT 10SM CLR 03/M03 A3023 RMK AO2
KSME 161515Z AUTO 19005KT 10SM CLR 02/M03 A3024 RMK AO2
KSME 161455Z AUTO 19006KT 10SM CLR 01/M03 A3024 RMK AO2
KSME 161435Z AUTO 18006KT 10SM CLR 00/M04 A3023 RMK AO2
KSME 161415Z AUTO 18008KT 10SM CLR 00/M05 A3022 RMK AO2
KSME 161355Z AUTO 18006KT 10SM CLR 00/M05 A3022 RMK AO2
KSME 161335Z AUTO 19006KT 10SM CLR M01/M05 A3023 RMK AO2
KSME 161315Z AUTO 18007KT 10SM CLR M02/M05 A3023 RMK AO2
KSME 161255Z AUTO 18006KT 10SM CLR M02/M05 A3023 RMK AO2
KSME 161235Z AUTO 18006KT 10SM CLR M02/M06 A3022 RMK AO2
KSME 161215Z AUTO 18006KT 10SM CLR M02/M06 A3022 RMK AO2
KSME 161155Z AUTO 18006KT 10SM CLR M02/M06 A3021 RMK AO2
KSME 161135Z AUTO 18005KT 10SM CLR M02/M06 A3021 RMK AO2
KSME 161115Z AUTO 18005KT 10SM CLR M02/M06 A3022 RMK AO2
KSME 161055Z AUTO 18005KT 10SM CLR M02/M06 A3022 RMK AO2
KSME 161035Z AUTO 18005KT 10SM CLR M02/M06 A3021 RMK AO2
KSME 161015Z AUTO 18005KT 10SM CLR M02/M06 A3020 RMK AO2
KSME 160955Z AUTO 18005KT 10SM CLR M02/M06 A3020 RMK AO2
KSME 160935Z AUTO 18006KT 10SM SCT045 M02/M06 A3021 RMK AO2
KSME 160915Z AUTO 18006KT 10SM BKN045 M01/M06 A3021 RMK AO2
KSME 160855Z AUTO 18004KT 10SM SCT045 M01/M05 A3021 RMK AO2
KSME 160835Z AUTO 18003KT 10SM SCT042 M01/M05 A3022 RMK AO2
KSME 160815Z AUTO 18004KT 10SM BKN042 M01/M06 A3022 RMK AO2
KSME 160755Z AUTO 18004KT 10SM SCT040 M01/M06 A3022 RMK AO2
KSME 160735Z AUTO 18005KT 10SM CLR M01/M05 A3021 RMK AO2
KSME 160715Z AUTO 18006KT 10SM CLR M01/M06 A3021 RMK AO2
KSME 160655Z AUTO 18006KT 10SM CLR M01/M06 A3020 RMK AO2
KSME 160635Z AUTO 18004KT 10SM SCT050 00/M06 A3020 RMK AO2
KSME 160615Z AUTO 18005KT 10SM SCT050 00/M06 A3020 RMK AO2
KSME 160555Z AUTO 18005KT 10SM CLR 00/M06 A3020 RMK AO2
KSME 160535Z AUTO 18005KT 10SM CLR 00/M06 A3020 RMK AO2
KSME 160515Z AUTO 18004KT 10SM SCT049 00/M05 A3020 RMK AO2
KSME 160455Z AUTO 18004KT 10SM OVC049 00/M05 A3020 RMK AO2
KSME 160435Z AUTO 20004KT 10SM OVC047 01/M06 A3020 RMK AO2
KSME 160415Z AUTO 23005KT 10SM OVC047 01/M06 A3020 RMK AO2
KSME 160355Z AUTO 24005KT 10SM OVC047 01/M06 A3020 RMK AO2
KSME 160335Z AUTO 22007KT 180V270 10SM OVC047 01/M06 A3018 RMK AO2
KSME 160315Z AUTO 24007KT 180V270 10SM OVC047 01/M06 A3018 RMK AO2
KSME 160255Z AUTO 21006KT 10SM OVC047 00/M06 A3018 RMK AO2
KSME 160235Z AUTO 20005KT 10SM OVC047 00/M06 A3018 RMK AO2
KSME 160215Z AUTO 24006KT 10SM OVC047 00/M06 A3018 RMK AO2
KSME 160155Z AUTO 21006KT 10SM OVC047 00/M06 A3017 RMK AO2
KSME 160135Z AUTO 21005KT 10SM OVC047 00/M06 A3017 RMK AO2
KSME 160115Z AUTO 22005KT 10SM OVC047 00/M06 A3017 RMK AO2
KSME 160055Z AUTO 25006KT 10SM OVC047 00/M06 A3017 RMK AO2
KSME 160035Z AUTO 24006KT 10SM OVC047 00/M06 A3017 RMK AO2
KSME 160015Z AUTO 24005KT 10SM OVC047 00/M06 A3016 RMK AO2
KSME 152355Z AUTO 27005KT 10SM OVC047 00/M06 A3015 RMK AO2
KSME 152335Z AUTO 27006KT 10SM OVC049 00/M06 A3015 RMK AO2
KSME 152315Z AUTO 24005KT 10SM OVC049 00/M06 A3014 RMK AO2
KSME 152255Z AUTO 26005KT 10SM OVC049 00/M06 A3014 RMK AO2
KSME 152235Z AUTO 23004KT 10SM OVC049 00/M06 A3013 RMK AO2
KSME 152215Z AUTO 25006KT 10SM OVC049 00/M06 A3013 RMK AO2
KSME 152155Z AUTO 19004KT 10SM BKN049 00/M06 A3012 RMK AO2
KSME 152135Z AUTO 27006KT 10SM SCT049 00/M07 A3012 RMK AO2
KSME 152115Z AUTO 23005KT 10SM CLR 01/M07 A3012 RMK AO2
KSME 152055Z AUTO 25005KT 10SM CLR 01/M07 A3010 RMK AO2
KSME 152035Z AUTO 23007KT 180V270 10SM CLR 01/M07 A3010 RMK AO2
KSME 152015Z AUTO 27008KT 10SM SCT033 SCT040 00/M07 A3010 RMK AO2
KSME 151955Z AUTO 27010KT 10SM BKN033 01/M07 A3011 RMK AO2
KSME 151935Z AUTO 27008KT 10SM OVC031 00/M07 A3011 RMK AO2
KSME 151915Z AUTO 27007KT 10SM OVC029 00/M07 A3011 RMK AO2
KSME 151855Z AUTO 27010G15KT 10SM OVC029 00/M07 A3011 RMK AO2
KSME 151835Z AUTO 27010KT 10SM OVC027 00/M07 A3011 RMK AO2
KSME 151815Z AUTO 27012G17KT 10SM OVC027 00/M06 A3011 RMK AO2
KSME 151755Z AUTO 27011G16KT 10SM OVC029 00/M06 A3012 RMK AO2
KSME 151735Z AUTO 27009G16KT 10SM OVC029 00/M07 A3013 RMK AO2
KSME 151715Z AUTO 28010KT 10SM OVC029 00/M07 A3013 RMK AO2
KSME 151655Z AUTO 28011KT 10SM OVC031 00/M07 A3013 RMK AO2
KSME 151635Z AUTO 27009G14KT 10SM OVC031 00/M07 A3014 RMK AO2
KSME 151615Z AUTO 27011KT 10SM SCT027 OVC033 M01/M07 A3014 RMK AO2
KSME 151555Z AUTO 27008KT 10SM OVC033 M01/M06 A3013 RMK AO2
KSME 151535Z AUTO 27009KT 10SM OVC033 M01/M07 A3013 RMK AO2
KSME 151515Z AUTO 27008KT 10SM OVC033 M01/M07 A3013 RMK AO2
KSME 151455Z AUTO 27010KT 10SM OVC033 M01/M07 A3012 RMK AO2
KSME 151435Z AUTO 28004KT 10SM OVC033 M01/M07 A3011 RMK AO2
KSME 151415Z AUTO 00000KT 10SM OVC033 M01/M07 A3010 RMK AO2
KSME 151355Z AUTO 00000KT 10SM OVC033 M01/M07 A3009 RMK AO2
KSME 151335Z AUTO 31003KT 10SM OVC033 M01/M07 A3008 RMK AO2
KSME 151315Z AUTO 00000KT 10SM OVC033 M02/M07 A3007 RMK AO2
KSME 151255Z AUTO 35003KT 10SM OVC035 M02/M07 A3008 RMK AO2
KSME 151235Z AUTO 00000KT 10SM OVC035 M02/M07 A3007 RMK AO2
KSME 151215Z AUTO 36004KT 10SM OVC035 M02/M07 A3007 RMK AO2
KSME 151155Z AUTO 35004KT 10SM OVC035 M02/M07 A3006 RMK AO2
KSME 151135Z AUTO 31003KT 10SM OVC035 M01/M07 A3005 RMK AO2
KSME 151115Z AUTO 33003KT 10SM OVC033 M01/M06 A3005 RMK AO2
KSME 151055Z AUTO 36005KT 10SM OVC033 M01/M07 A3004 RMK AO2
KSME 151035Z AUTO 35004KT 10SM OVC033 M01/M07 A3004 RMK AO2
KSME 151015Z AUTO 32005KT 10SM OVC033 M01/M07 A3004 RMK AO2
KSME 150955Z AUTO 00000KT 10SM OVC033 M01/M06 A3004 RMK AO2
KSME 150935Z AUTO 00000KT 10SM OVC033 M01/M06 A3004 RMK AO2
KSME 150915Z AUTO 36003KT 10SM OVC033 M01/M07 A3005 RMK AO2
KSME 150855Z AUTO 00000KT 10SM OVC033 M01/M06 A3005 RMK AO2